createdAt,value
2022-10-23T00:02:00.475Z,12.69
2022-10-23T00:04:30.108Z,12.68
2022-10-23T00:06:59.284Z,12.63
2022-10-23T00:09:28.323Z,12.66
2022-10-23T00:11:56.371Z,12.64
2022-10-23T00:14:26.069Z,12.72
2022-10-23T00:16:55.105Z,12.62
2022-10-23T00:19:23.076Z,12.62
2022-10-23T00:21:51.352Z,12.70
2022-10-23T00:24:21.542Z,12.79
2022-10-23T00:26:52.475Z,12.70
2022-10-23T00:29:22.599Z,12.76
2022-10-23T00:31:50.968Z,12.71
2022-10-23T00:34:20.318Z,12.82
2022-10-23T00:36:48.993Z,12.78
2022-10-23T00:39:17.108Z,12.74
2022-10-23T00:41:44.856Z,12.74
2022-10-23T00:44:18.806Z,12.63
2022-10-23T00:46:47.524Z,12.65
2022-10-23T00:49:17.191Z,12.70
2022-10-23T00:51:49.929Z,12.65
2022-10-23T00:54:25.281Z,12.58
2022-10-23T00:57:00.048Z,12.48
2022-10-23T00:59:28.825Z,12.48
2022-10-23T01:01:58.227Z,12.46
2022-10-23T01:04:27.985Z,12.42
2022-10-23T01:07:23.484Z,12.37
2022-10-23T01:09:56.429Z,12.52
2022-10-23T01:12:46.014Z,12.44
2022-10-23T01:15:51.068Z,12.34
2022-10-23T01:18:28.148Z,12.30
2022-10-23T01:21:06.815Z,12.28
2022-10-23T01:23:55.888Z,12.20
2022-10-23T01:26:30.779Z,12.10
2022-10-23T01:29:09.422Z,12.02
2022-10-23T01:31:45.713Z,11.93
2022-10-23T01:34:24.084Z,11.84
2022-10-23T01:36:53.824Z,11.90
2022-10-23T01:39:38.013Z,11.81
2022-10-23T01:42:17.647Z,11.82
2022-10-23T01:45:16.122Z,11.79
2022-10-23T01:47:45.911Z,11.79
2022-10-23T01:50:16.298Z,11.73
2022-10-23T01:52:45.635Z,11.75
2022-10-23T01:55:15.402Z,11.71
2022-10-23T01:57:46.260Z,11.67
2022-10-23T02:00:16.767Z,11.61
2022-10-23T02:02:45.511Z,11.59
2022-10-23T02:05:19.286Z,11.49
2022-10-23T02:07:47.212Z,11.46
2022-10-23T02:10:16.466Z,11.42
2022-10-23T02:13:08.140Z,11.39
2022-10-23T02:15:38.021Z,11.50
2022-10-23T02:18:28.983Z,11.63
2022-10-23T02:21:05.782Z,11.63
2022-10-23T02:23:35.916Z,11.61
2022-10-23T02:26:23.138Z,11.58
2022-10-23T02:28:54.407Z,11.54
2022-10-23T02:31:23.826Z,11.59
2022-10-23T02:33:52.923Z,11.53
2022-10-23T02:36:21.600Z,11.59
2022-10-23T02:38:49.979Z,11.67
2022-10-23T02:41:34.228Z,11.63
2022-10-23T02:44:21.315Z,11.65
2022-10-23T02:47:28.519Z,11.66
2022-10-23T02:50:02.276Z,11.54
2022-10-23T02:52:50.673Z,11.47
2022-10-23T02:55:33.323Z,11.37
2022-10-23T02:58:11.476Z,11.30
2022-10-23T03:00:43.503Z,11.21
2022-10-23T03:03:21.770Z,11.16
2022-10-23T03:05:50.119Z,11.08
2022-10-23T03:08:18.271Z,11.13
2022-10-23T03:13:18.044Z,11.00
2022-10-23T03:15:46.186Z,10.95
2022-10-23T03:18:16.530Z,10.89
2022-10-23T03:20:46.114Z,10.82
2022-10-23T03:23:17.933Z,10.77
2022-10-23T03:25:47.257Z,10.80
2022-10-23T03:28:18.370Z,10.86
2022-10-23T03:30:46.477Z,10.98
2022-10-23T03:33:15.051Z,10.98
2022-10-23T03:35:43.103Z,11.00
2022-10-23T03:38:12.636Z,11.13
2022-10-23T03:40:41.204Z,11.10
2022-10-23T03:43:10.625Z,11.01
2022-10-23T03:45:41.102Z,11.08
2022-10-23T03:48:09.683Z,11.06
2022-10-23T03:50:38.120Z,11.13
2022-10-23T03:53:07.773Z,11.05
2022-10-23T03:55:36.709Z,10.97
2022-10-23T03:58:04.549Z,10.94
2022-10-23T04:00:32.806Z,10.98
2022-10-23T04:03:07.504Z,11.01
2022-10-23T04:05:37.113Z,10.98
2022-10-23T04:08:06.985Z,11.01
2022-10-23T04:10:35.869Z,11.04
2022-10-23T04:13:04.680Z,10.99
2022-10-23T04:15:33.956Z,11.10
2022-10-23T04:18:04.004Z,11.05
2022-10-23T04:20:33.923Z,11.01
2022-10-23T04:23:04.471Z,11.07
2022-10-23T04:25:32.739Z,11.11
2022-10-23T04:28:02.624Z,11.09
2022-10-23T04:30:30.820Z,11.12
2022-10-23T04:32:59.465Z,11.14
2022-10-23T04:35:28.066Z,11.11
2022-10-23T04:37:56.266Z,11.20
2022-10-23T04:40:24.699Z,11.19
2022-10-23T04:42:52.472Z,11.27
2022-10-23T04:45:23.953Z,11.28
2022-10-23T04:47:54.190Z,11.25
2022-10-23T04:50:22.749Z,11.28
2022-10-23T04:52:55.735Z,11.32
2022-10-23T04:55:25.690Z,11.34
2022-10-23T04:57:54.915Z,11.27
2022-10-23T05:00:23.519Z,11.28
2022-10-23T05:02:52.817Z,11.35
2022-10-23T05:05:22.568Z,11.26
2022-10-23T05:07:51.361Z,11.39
2022-10-23T05:10:20.553Z,11.37
2022-10-23T05:12:48.831Z,11.29
2022-10-23T05:15:17.384Z,11.20
2022-10-23T05:17:49.822Z,11.17
2022-10-23T05:20:25.948Z,11.16
2022-10-23T05:22:56.970Z,11.15
2022-10-23T05:25:36.680Z,11.08
2022-10-23T05:28:07.900Z,11.20
2022-10-23T05:30:36.591Z,11.12
2022-10-23T05:33:05.639Z,11.18
2022-10-23T05:35:33.822Z,11.17
2022-10-23T05:38:03.967Z,11.18
2022-10-23T05:40:32.124Z,11.26
2022-10-23T05:42:59.672Z,11.17
2022-10-23T05:45:28.235Z,11.10
2022-10-23T05:48:05.602Z,11.18
2022-10-23T05:50:40.103Z,11.18
2022-10-23T05:53:08.584Z,11.15
2022-10-23T05:55:38.721Z,11.19
2022-10-23T05:58:07.956Z,11.28
2022-10-23T06:01:28.588Z,11.19
2022-10-23T06:03:59.912Z,11.10
2022-10-23T06:06:27.968Z,11.16
2022-10-23T06:08:55.823Z,11.06
2022-10-23T06:11:25.226Z,11.14
2022-10-23T06:16:26.509Z,11.18
2022-10-23T06:18:54.722Z,11.14
2022-10-23T06:21:22.602Z,11.26
2022-10-23T06:23:51.390Z,11.28
2022-10-23T06:26:22.367Z,11.25
2022-10-23T06:28:50.575Z,11.25
2022-10-23T06:31:20.130Z,11.15
2022-10-23T06:33:47.942Z,11.19
2022-10-23T06:36:15.747Z,11.29
2022-10-23T06:38:45.279Z,11.28
2022-10-23T06:41:19.944Z,11.20
2022-10-23T06:43:51.932Z,11.20
2022-10-23T06:46:20.063Z,11.17
2022-10-23T06:48:47.584Z,11.16
2022-10-23T06:51:18.459Z,11.29
2022-10-23T06:53:47.069Z,11.26
2022-10-23T06:56:18.158Z,11.39
2022-10-23T06:58:47.475Z,11.29
2022-10-23T07:01:17.499Z,11.41
2022-10-23T07:03:45.793Z,11.52
2022-10-23T07:06:14.466Z,11.46
2022-10-23T07:08:42.191Z,11.61
2022-10-23T07:11:11.537Z,11.55
2022-10-23T07:13:39.932Z,11.56
2022-10-23T07:16:21.180Z,11.54
2022-10-23T07:18:50.824Z,11.58
2022-10-23T07:21:18.533Z,11.66
2022-10-23T07:23:46.491Z,11.65
2022-10-23T07:26:16.338Z,11.64
2022-10-23T07:28:45.247Z,11.72
2022-10-23T07:31:13.573Z,11.65
2022-10-23T07:33:41.533Z,11.63
2022-10-23T07:36:09.786Z,11.82
2022-10-23T07:38:37.501Z,11.88
2022-10-23T07:41:08.935Z,11.91
2022-10-23T07:43:39.332Z,11.82
2022-10-23T07:46:09.002Z,11.98
2022-10-23T07:48:37.646Z,11.91
2022-10-23T07:51:13.505Z,12.03
2022-10-23T07:53:41.195Z,12.04
2022-10-23T07:56:32.653Z,12.08
2022-10-23T07:59:00.242Z,12.16
2022-10-23T08:01:38.917Z,12.12
2022-10-23T08:04:10.524Z,12.08
2022-10-23T08:06:38.840Z,12.21
2022-10-23T08:09:07.175Z,12.18
2022-10-23T08:11:38.442Z,12.17
2022-10-23T08:14:07.648Z,12.19
2022-10-23T08:16:39.873Z,12.23
2022-10-23T08:19:09.407Z,12.27
2022-10-23T08:21:38.467Z,12.23
2022-10-23T08:24:08.521Z,12.38
2022-10-23T08:26:36.569Z,12.51
2022-10-23T08:29:07.963Z,12.69
2022-10-23T08:31:35.815Z,12.70
2022-10-23T08:34:05.813Z,12.81
2022-10-23T08:36:34.859Z,12.93
2022-10-23T08:39:03.464Z,12.90
2022-10-23T08:41:41.503Z,12.94
2022-10-23T08:44:29.929Z,13.05
2022-10-23T08:47:24.015Z,12.98
2022-10-23T08:49:57.075Z,12.95
2022-10-23T08:52:53.462Z,13.05
2022-10-23T08:55:34.307Z,13.16
2022-10-23T08:58:21.148Z,13.14
2022-10-23T09:00:51.444Z,13.22
2022-10-23T09:03:19.959Z,13.27
2022-10-23T09:06:22.861Z,13.26
2022-10-23T09:09:18.678Z,13.63
2022-10-23T09:12:12.129Z,13.64
2022-10-23T09:15:05.186Z,13.74
2022-10-23T09:17:35.949Z,13.81
2022-10-23T09:20:16.224Z,13.84
2022-10-23T09:22:45.882Z,13.86
2022-10-23T09:25:20.789Z,14.00
2022-10-23T09:27:53.293Z,13.99
2022-10-23T09:30:35.099Z,13.82
2022-10-23T09:33:16.080Z,13.84
2022-10-23T09:36:00.795Z,13.97
2022-10-23T09:38:28.085Z,14.15
2022-10-23T09:40:57.658Z,14.14
2022-10-23T09:43:28.378Z,14.14
2022-10-23T09:46:06.707Z,14.00
2022-10-23T09:48:36.172Z,14.12
2022-10-23T09:51:18.347Z,14.25
2022-10-23T09:54:00.717Z,14.33
2022-10-23T09:56:36.825Z,14.63
2022-10-23T09:59:33.610Z,14.61
2022-10-23T10:02:07.630Z,14.62
2022-10-23T10:04:39.405Z,14.47
2022-10-23T10:10:19.537Z,14.32
2022-10-23T10:13:14.267Z,14.44
2022-10-23T10:25:23.745Z,14.70
2022-10-23T10:28:16.170Z,15.04
2022-10-23T10:31:29.637Z,15.15
2022-10-23T10:34:20.935Z,15.01
2022-10-23T10:37:14.845Z,15.05
2022-10-23T10:40:07.061Z,15.01
2022-10-23T10:43:00.909Z,15.05
2022-10-23T10:45:51.929Z,15.22
2022-10-23T10:49:23.416Z,15.18
2022-10-23T10:52:39.395Z,15.24
2022-10-23T10:59:23.350Z,15.25
2022-10-23T11:02:16.257Z,15.21
2022-10-23T11:08:44.471Z,15.09
2022-10-23T11:11:59.528Z,15.03
2022-10-23T11:38:31.379Z,15.08
2022-10-23T12:05:45.551Z,15.75
2022-10-23T12:11:53.573Z,15.75
2022-10-23T12:41:34.146Z,15.88
2022-10-23T12:57:00.761Z,16.23
2022-10-23T12:59:53.500Z,16.14
2022-10-23T21:32:33.727Z,15.16
2022-10-23T22:10:36.666Z,15.14
2022-10-23T22:30:03.288Z,15.03
2022-10-23T22:37:10.712Z,15.02
2022-10-23T23:17:39.284Z,14.85
2022-10-23T23:38:20.333Z,15.04
